createdAt,value
2023-06-29T00:00:11.403Z,100774.63
2023-06-29T00:02:44.459Z,100761.72
2023-06-29T00:05:15.370Z,100769.19
2023-06-29T00:07:46.396Z,100767.31
2023-06-29T00:10:17.314Z,100775.38
2023-06-29T00:12:48.389Z,100768.72
2023-06-29T00:15:19.435Z,100782.81
2023-06-29T00:17:50.517Z,100782.19
2023-06-29T00:20:21.717Z,100781.16
2023-06-29T00:22:53.125Z,100784.91
2023-06-29T00:25:23.960Z,100792.78
2023-06-29T00:27:55.006Z,100786.53
2023-06-29T00:30:25.938Z,100782.19
2023-06-29T00:32:57.529Z,100788.59
2023-06-29T00:35:28.349Z,100787.34
2023-06-29T00:38:01.836Z,100795.41
2023-06-29T00:40:34.447Z,100792.28
2023-06-29T00:43:05.550Z,100790.63
2023-06-29T00:45:36.707Z,100787.31
2023-06-29T00:48:09.995Z,100752.03
2023-06-29T00:50:42.065Z,100740.59
2023-06-29T00:53:13.856Z,100782.66
2023-06-29T00:55:45.369Z,100796.13
2023-06-29T00:58:16.827Z,100780.09
2023-06-29T01:00:47.613Z,100768.50
2023-06-29T01:03:18.805Z,100783.81
2023-06-29T01:05:53.230Z,100711.84
2023-06-29T01:08:30.577Z,100772.53
2023-06-29T01:11:03.384Z,100780.44
2023-06-29T01:13:35.120Z,100786.00
2023-06-29T01:16:07.699Z,100781.25
2023-06-29T01:18:40.014Z,100786.41
2023-06-29T01:21:14.771Z,100767.13
2023-06-29T01:23:48.169Z,100799.06
2023-06-29T01:26:19.492Z,100794.06
2023-06-29T01:28:54.889Z,100790.97
2023-06-29T01:31:29.469Z,100800.28
2023-06-29T01:34:00.979Z,100805.25
2023-06-29T01:36:44.905Z,100726.44
2023-06-29T01:39:22.945Z,100792.78
2023-06-29T01:41:55.929Z,100792.34
2023-06-29T01:44:26.926Z,100810.78
2023-06-29T01:46:59.540Z,100813.28
2023-06-29T01:49:31.061Z,100804.78
2023-06-29T01:52:02.247Z,100810.13
2023-06-29T01:54:33.475Z,100808.03
2023-06-29T01:57:08.173Z,100731.75
2023-06-29T01:59:39.904Z,100807.16
2023-06-29T02:02:11.031Z,100807.16
2023-06-29T02:04:42.537Z,100809.22
2023-06-29T02:07:14.462Z,100788.41
2023-06-29T02:09:46.087Z,100808.75
2023-06-29T02:12:17.421Z,100787.59
2023-06-29T02:14:48.474Z,100804.94
2023-06-29T02:17:19.928Z,100802.66
2023-06-29T02:19:51.428Z,100802.84
2023-06-29T02:22:22.862Z,100807.00
2023-06-29T02:24:54.879Z,100798.22
2023-06-29T02:27:25.862Z,100803.19
2023-06-29T02:29:56.667Z,100802.75
2023-06-29T02:32:28.032Z,100812.50
2023-06-29T02:34:59.357Z,100803.94
2023-06-29T02:37:30.990Z,100796.44
2023-06-29T02:40:02.258Z,100790.78
2023-06-29T02:42:34.890Z,100796.38
2023-06-29T02:45:08.119Z,100790.09
2023-06-29T02:47:39.690Z,100799.47
2023-06-29T02:50:11.531Z,100808.78
2023-06-29T02:52:52.932Z,100813.75
2023-06-29T02:55:27.187Z,100811.19
2023-06-29T02:57:58.545Z,100813.47
2023-06-29T03:00:29.941Z,100818.66
2023-06-29T03:03:01.223Z,100805.63
2023-06-29T03:05:32.748Z,100822.22
2023-06-29T03:08:07.645Z,100830.06
2023-06-29T03:10:39.017Z,100828.56
2023-06-29T03:13:10.323Z,100817.41
2023-06-29T03:15:41.910Z,100820.28
2023-06-29T03:18:13.346Z,100831.88
2023-06-29T03:20:44.568Z,100803.88
2023-06-29T03:23:16.471Z,100838.88
2023-06-29T03:25:47.643Z,100835.97
2023-06-29T03:28:18.998Z,100840.31
2023-06-29T03:30:50.276Z,100828.84
2023-06-29T03:33:21.775Z,100831.81
2023-06-29T03:35:53.010Z,100836.78
2023-06-29T03:38:25.507Z,100817.41
2023-06-29T03:40:56.629Z,100843.75
2023-06-29T03:43:27.841Z,100828.34
2023-06-29T03:46:01.948Z,100822.91
2023-06-29T03:48:33.294Z,100830.34
2023-06-29T03:51:04.616Z,100818.94
2023-06-29T03:53:35.973Z,100813.72
2023-06-29T03:56:07.357Z,100817.41
2023-06-29T03:58:38.711Z,100811.50
2023-06-29T04:01:10.073Z,100805.06
2023-06-29T04:03:41.335Z,100805.63
2023-06-29T04:06:12.709Z,100799.75
2023-06-29T04:08:43.954Z,100790.56
2023-06-29T04:11:15.341Z,100790.09
2023-06-29T04:13:46.727Z,100788.00
2023-06-29T04:16:18.582Z,100753.59
2023-06-29T04:18:49.823Z,100775.66
2023-06-29T04:21:21.132Z,100772.94
2023-06-29T04:23:52.860Z,100766.44
2023-06-29T04:26:25.103Z,100763.31
2023-06-29T04:29:09.092Z,100658.94
2023-06-29T04:31:40.517Z,100741.94
2023-06-29T04:34:11.760Z,100736.16
2023-06-29T04:36:43.128Z,100740.66
2023-06-29T04:39:15.821Z,100729.81
2023-06-29T04:41:49.426Z,100737.47
2023-06-29T04:44:23.966Z,100735.72
2023-06-29T04:46:55.533Z,100695.78
2023-06-29T04:49:29.776Z,100728.19
2023-06-29T04:52:03.923Z,100719.19
2023-06-29T04:54:35.906Z,100717.22
2023-06-29T04:57:07.559Z,100695.38
2023-06-29T04:59:38.961Z,100706.97
2023-06-29T05:02:10.160Z,100711.91
2023-06-29T05:04:41.585Z,100703.31
2023-06-29T05:07:12.935Z,100696.44
2023-06-29T05:09:44.524Z,100698.47
2023-06-29T05:12:17.068Z,100696.34
2023-06-29T05:14:48.511Z,100691.28
2023-06-29T05:17:20.612Z,100673.66
2023-06-29T05:19:52.010Z,100682.88
2023-06-29T05:22:23.193Z,100670.97
2023-06-29T05:24:54.821Z,100665.06
2023-06-29T05:27:25.969Z,100662.38
2023-06-29T05:29:57.327Z,100653.31
2023-06-29T05:32:29.398Z,100655.75
2023-06-29T05:35:00.544Z,100632.41
2023-06-29T05:37:33.576Z,100622.69
2023-06-29T05:40:04.601Z,100618.00
2023-06-29T05:42:36.016Z,100629.09
2023-06-29T05:45:08.202Z,100626.94
2023-06-29T05:47:39.557Z,100609.00
2023-06-29T05:50:11.440Z,100604.06
2023-06-29T05:52:42.792Z,100615.50
2023-06-29T05:55:14.213Z,100607.09
2023-06-29T05:57:45.765Z,100586.09
2023-06-29T06:00:20.848Z,100589.84
2023-06-29T06:02:51.935Z,100587.06
2023-06-29T06:05:22.950Z,100554.69
2023-06-29T06:07:54.433Z,100550.31
2023-06-29T06:10:25.697Z,100545.22
2023-06-29T06:12:56.997Z,100556.78
2023-06-29T06:15:28.139Z,100552.50
2023-06-29T06:17:59.621Z,100555.81
2023-06-29T06:20:30.744Z,100535.88
2023-06-29T06:23:02.048Z,100544.44
2023-06-29T06:25:33.357Z,100535.22
2023-06-29T06:28:04.915Z,100527.56
2023-06-29T06:30:35.742Z,100528.69
2023-06-29T06:33:06.939Z,100521.41
2023-06-29T06:35:38.139Z,100515.72
2023-06-29T06:38:09.740Z,100512.66
2023-06-29T06:40:40.721Z,100518.78
2023-06-29T06:43:12.208Z,100497.66
2023-06-29T06:45:43.323Z,100522.69
2023-06-29T06:48:15.121Z,100512.50
2023-06-29T06:50:46.081Z,100510.97
2023-06-29T06:53:17.613Z,100501.31
2023-06-29T06:55:48.813Z,100497.19
2023-06-29T06:58:20.043Z,100473.81
2023-06-29T07:00:51.650Z,100497.75
2023-06-29T07:03:23.175Z,100476.63
2023-06-29T07:05:56.154Z,100470.13
2023-06-29T07:08:27.481Z,100446.16
2023-06-29T07:10:58.686Z,100466.53
2023-06-29T07:13:30.040Z,100444.56
2023-06-29T07:16:01.260Z,100465.47
2023-06-29T07:18:33.933Z,100467.72
2023-06-29T07:26:14.334Z,100459.06
2023-06-29T07:28:45.030Z,100453.06
2023-06-29T07:31:16.212Z,100437.72
2023-06-29T07:33:47.631Z,100430.72
2023-06-29T07:36:19.015Z,100435.91
2023-06-29T07:38:50.969Z,100437.22
2023-06-29T07:41:23.541Z,100430.81
2023-06-29T07:43:59.403Z,100428.09
2023-06-29T07:46:30.841Z,100419.69
2023-06-29T07:49:02.207Z,100409.25
2023-06-29T07:51:35.722Z,100436.25
2023-06-29T07:54:09.063Z,100441.34
2023-06-29T07:59:14.525Z,100422.41
2023-06-29T08:01:45.686Z,100417.22
2023-06-29T08:06:42.329Z,100413.84
2023-06-29T08:07:10.727Z,100423.16
2023-06-29T08:09:42.529Z,100426.94
2023-06-29T08:12:13.605Z,100450.81
2023-06-29T08:14:46.192Z,100402.91
2023-06-29T08:17:17.485Z,100401.22
2023-06-29T08:19:48.864Z,100438.13
2023-06-29T08:22:19.909Z,100430.16
2023-06-29T08:24:51.499Z,100431.38
2023-06-29T08:27:25.322Z,100424.75
2023-06-29T08:29:57.652Z,100430.28
2023-06-29T08:32:29.244Z,100424.63
2023-06-29T08:35:00.823Z,100407.75
2023-06-29T08:37:31.868Z,100393.94
2023-06-29T08:40:03.338Z,100423.69
2023-06-29T08:42:33.964Z,100462.00
2023-06-29T08:45:05.309Z,100462.69
2023-06-29T08:47:38.886Z,100460.81
2023-06-29T08:50:12.879Z,100352.69
2023-06-29T08:52:46.080Z,100449.84
2023-06-29T08:55:17.850Z,100480.31
2023-06-29T08:57:48.459Z,100537.72
2023-06-29T09:00:19.860Z,100550.66
2023-06-29T09:02:54.090Z,100564.22
2023-06-29T09:05:25.700Z,100569.16
2023-06-29T09:07:57.099Z,100574.97
2023-06-29T09:10:28.614Z,100592.94
2023-06-29T09:12:59.922Z,100580.41
2023-06-29T09:15:31.907Z,100578.78
2023-06-29T09:18:02.964Z,100578.78
2023-06-29T09:20:38.378Z,100567.50
2023-06-29T09:23:10.284Z,100572.16
2023-06-29T09:25:42.297Z,100552.56
2023-06-29T09:28:15.638Z,100565.31
2023-06-29T09:30:47.336Z,100558.72
2023-06-29T09:33:21.155Z,100560.63
2023-06-29T09:35:55.845Z,100511.91
2023-06-29T09:38:27.909Z,100531.34
2023-06-29T09:40:59.255Z,100563.69
2023-06-29T09:43:32.219Z,100584.19
2023-06-29T09:46:12.954Z,100566.28
2023-06-29T09:51:26.247Z,100571.00
2023-06-29T09:53:57.724Z,100560.59
2023-06-29T09:56:29.453Z,100559.44
2023-06-29T09:59:03.652Z,100577.84
2023-06-29T10:01:35.179Z,100570.78
2023-06-29T10:04:07.402Z,100577.72
2023-06-29T10:06:45.703Z,100575.00
2023-06-29T10:09:23.702Z,100578.81
2023-06-29T10:11:58.889Z,100504.34
2023-06-29T10:14:30.536Z,100581.41
2023-06-29T10:17:04.108Z,100565.34
2023-06-29T10:19:38.302Z,100580.44
2023-06-29T10:22:14.569Z,100585.19
2023-06-29T10:24:58.166Z,100472.09
2023-06-29T10:27:33.169Z,100562.00
2023-06-29T10:30:08.854Z,100565.53
2023-06-29T10:32:42.583Z,100371.22
2023-06-29T10:35:17.212Z,100550.91
2023-06-29T10:37:52.944Z,100361.31
2023-06-29T10:40:29.628Z,100550.19
2023-06-29T10:43:00.787Z,100550.66
2023-06-29T10:45:35.637Z,100554.31
2023-06-29T10:48:08.203Z,100562.53
2023-06-29T10:50:45.329Z,100492.84
2023-06-29T10:53:18.399Z,100477.41
2023-06-29T10:55:59.247Z,100575.41
2023-06-29T10:58:35.931Z,100562.06
2023-06-29T11:01:07.506Z,100553.44
2023-06-29T11:03:38.863Z,100551.00
2023-06-29T11:06:11.545Z,100525.88
2023-06-29T11:08:51.057Z,100367.25
2023-06-29T11:11:24.525Z,100550.78
2023-06-29T11:13:58.818Z,100553.50
2023-06-29T11:16:31.132Z,100550.91
2023-06-29T11:19:05.346Z,100550.31
2023-06-29T11:21:36.787Z,100556.69
2023-06-29T11:24:08.209Z,100554.22
2023-06-29T11:26:39.772Z,100516.56
2023-06-29T11:29:11.165Z,100527.91
2023-06-29T11:31:42.884Z,100547.50
2023-06-29T11:34:16.545Z,100448.72
2023-06-29T11:39:40.599Z,100536.44
2023-06-29T11:42:12.627Z,100542.88
2023-06-29T11:44:43.775Z,100546.19
2023-06-29T11:47:32.863Z,100516.00
2023-06-29T11:50:07.272Z,100434.22
2023-06-29T11:52:41.170Z,100543.00
2023-06-29T11:55:15.292Z,100421.00
2023-06-29T11:57:56.234Z,100465.25
2023-06-29T12:00:33.221Z,100433.88
2023-06-29T12:03:12.783Z,100542.66
2023-06-29T12:05:45.166Z,100527.31
2023-06-29T12:08:18.356Z,100561.38
2023-06-29T12:10:49.631Z,100593.47
2023-06-29T12:13:22.003Z,100608.44
2023-06-29T12:18:34.520Z,100628.84
2023-06-29T12:21:07.891Z,100636.75
2023-06-29T12:23:39.559Z,100643.09
2023-06-29T12:26:10.907Z,100643.81
2023-06-29T12:28:42.618Z,100650.66
2023-06-29T12:31:14.835Z,100665.03
2023-06-29T12:33:47.246Z,100667.97
2023-06-29T12:36:18.418Z,100681.50
2023-06-29T12:38:52.778Z,100691.47
2023-06-29T12:41:23.998Z,100694.84
2023-06-29T12:43:55.228Z,100682.91
2023-06-29T12:46:30.586Z,100705.91
2023-06-29T12:49:03.349Z,100705.09
2023-06-29T12:51:35.747Z,100633.09
2023-06-29T12:54:07.654Z,100707.44
2023-06-29T12:56:38.966Z,100717.38
2023-06-29T12:59:10.336Z,100717.88
2023-06-29T13:01:41.933Z,100715.72
2023-06-29T13:04:13.882Z,100722.34
2023-06-29T13:06:45.417Z,100718.06
2023-06-29T13:09:16.928Z,100734.72
2023-06-29T13:11:48.227Z,100732.16
2023-06-29T13:14:19.891Z,100733.31
2023-06-29T13:16:51.043Z,100756.41
2023-06-29T13:19:22.469Z,100755.09
2023-06-29T13:21:53.953Z,100762.41
2023-06-29T13:24:25.712Z,100755.03
2023-06-29T13:26:56.941Z,100760.75
2023-06-29T13:29:28.341Z,100733.50
2023-06-29T13:32:00.674Z,100753.81
2023-06-29T13:34:35.083Z,100768.06
2023-06-29T13:37:07.220Z,100766.69
2023-06-29T13:39:40.125Z,100753.72
2023-06-29T13:42:17.278Z,100741.16
2023-06-29T13:44:49.348Z,100765.66
2023-06-29T13:47:21.057Z,100767.00
2023-06-29T13:49:53.336Z,100771.50
2023-06-29T13:52:24.623Z,100774.03
2023-06-29T13:54:56.084Z,100673.84
2023-06-29T13:57:27.469Z,100762.22
2023-06-29T13:59:59.201Z,100784.06
2023-06-29T14:02:30.587Z,100789.66
2023-06-29T14:05:02.450Z,100778.25
2023-06-29T14:07:34.125Z,100782.59
2023-06-29T14:10:05.760Z,100777.84
2023-06-29T14:12:37.141Z,100784.06
2023-06-29T14:15:09.396Z,100785.34
2023-06-29T14:17:41.369Z,100774.94
2023-06-29T14:20:12.526Z,100777.75
2023-06-29T14:22:43.558Z,100792.44
2023-06-29T14:25:14.869Z,100788.31
2023-06-29T14:27:46.121Z,100725.00
2023-06-29T14:30:17.882Z,100797.88
2023-06-29T14:32:52.878Z,100794.75
2023-06-29T14:35:32.162Z,100790.00
2023-06-29T14:38:13.287Z,100804.75
2023-06-29T14:40:45.673Z,100804.75
2023-06-29T14:43:17.059Z,100807.06
2023-06-29T14:45:49.325Z,100807.25
2023-06-29T14:48:20.934Z,100800.00
2023-06-29T14:50:57.819Z,100802.06
2023-06-29T14:53:29.310Z,100818.03
2023-06-29T14:56:09.001Z,100807.47
2023-06-29T14:58:40.742Z,100794.16
2023-06-29T15:01:12.191Z,100808.31
2023-06-29T15:03:43.803Z,100815.78
2023-06-29T15:06:15.428Z,100795.81
2023-06-29T15:08:47.009Z,100815.13
2023-06-29T15:11:18.554Z,100812.41
2023-06-29T15:13:50.399Z,100806.63
2023-06-29T15:16:21.913Z,100812.44
2023-06-29T15:18:59.669Z,100810.13
2023-06-29T15:21:31.990Z,100802.66
2023-06-29T15:24:03.925Z,100829.44
2023-06-29T15:26:35.438Z,100735.97
2023-06-29T15:29:07.511Z,100824.69
2023-06-29T15:31:38.902Z,100829.88
2023-06-29T15:34:13.026Z,100831.53
2023-06-29T15:36:45.196Z,100830.28
2023-06-29T15:39:16.447Z,100789.09
2023-06-29T15:41:50.399Z,100853.13
2023-06-29T15:44:22.641Z,100858.50
2023-06-29T15:46:56.329Z,100856.41
2023-06-29T15:49:27.621Z,100844.38
2023-06-29T15:51:59.025Z,100843.56
2023-06-29T15:54:30.196Z,100829.38
2023-06-29T15:57:01.678Z,100841.47
2023-06-29T15:59:32.882Z,100844.75
2023-06-29T16:02:04.378Z,100845.38
2023-06-29T16:04:35.868Z,100842.69
2023-06-29T16:07:10.034Z,100719.66
2023-06-29T16:09:41.592Z,100841.44
2023-06-29T16:12:13.030Z,100841.44
2023-06-29T16:14:44.405Z,100828.31
2023-06-29T16:17:15.630Z,100829.59
2023-06-29T16:19:47.013Z,100831.25
2023-06-29T16:22:18.387Z,100820.22
2023-06-29T16:24:49.982Z,100824.38
2023-06-29T16:27:21.247Z,100794.03
2023-06-29T16:29:52.487Z,100818.16
2023-06-29T16:32:23.754Z,100810.69
2023-06-29T16:34:55.000Z,100814.41
2023-06-29T16:37:26.724Z,100813.16
2023-06-29T16:39:57.860Z,100809.44
2023-06-29T16:42:29.202Z,100806.53
2023-06-29T16:45:00.322Z,100807.16
2023-06-29T16:47:31.534Z,100806.09
2023-06-29T16:50:02.891Z,100794.47
2023-06-29T16:52:34.389Z,100794.03
2023-06-29T16:55:06.034Z,100780.38
2023-06-29T16:57:37.402Z,100713.84
2023-06-29T17:00:10.672Z,100786.78
2023-06-29T17:02:42.084Z,100782.03
2023-06-29T17:05:13.293Z,100753.16
2023-06-29T17:07:44.557Z,100775.81
2023-06-29T17:10:16.032Z,100765.38
2023-06-29T17:12:47.427Z,100775.56
2023-06-29T17:15:18.686Z,100777.84
2023-06-29T17:17:49.994Z,100767.47
2023-06-29T17:20:21.819Z,100749.19
2023-06-29T17:22:53.405Z,100759.59
2023-06-29T17:25:24.617Z,100773.47
2023-06-29T17:27:55.885Z,100776.19
2023-06-29T17:30:26.958Z,100771.81
2023-06-29T17:32:58.192Z,100764.97
2023-06-29T17:35:29.427Z,100767.88
2023-06-29T17:38:01.190Z,100769.13
2023-06-29T17:40:33.457Z,100725.47
2023-06-29T17:43:04.151Z,100762.97
2023-06-29T17:45:35.697Z,100769.97
2023-06-29T17:48:10.923Z,100762.06
2023-06-29T17:50:42.158Z,100758.53
2023-06-29T17:53:13.395Z,100717.19
2023-06-29T17:55:44.695Z,100707.59
2023-06-29T17:58:16.208Z,100763.69
2023-06-29T18:00:47.355Z,100761.63
2023-06-29T18:03:18.861Z,100760.38
2023-06-29T18:05:50.349Z,100760.38
2023-06-29T18:08:21.587Z,100756.25
2023-06-29T18:10:52.718Z,100755.19
2023-06-29T18:13:24.118Z,100744.59
2023-06-29T18:15:55.305Z,100737.94
2023-06-29T18:18:26.453Z,100746.28
2023-06-29T18:20:57.646Z,100734.38
2023-06-29T18:23:28.815Z,100739.59
2023-06-29T18:26:00.048Z,100735.84
2023-06-29T18:28:31.379Z,100730.88
2023-06-29T18:31:02.570Z,100731.28
2023-06-29T18:33:33.772Z,100732.94
2023-06-29T18:36:04.887Z,100717.19
2023-06-29T18:38:36.728Z,100707.84
2023-06-29T18:41:08.681Z,100721.53
2023-06-29T18:43:40.112Z,100716.16
2023-06-29T18:46:11.250Z,100686.44
2023-06-29T18:48:42.588Z,100696.81
2023-06-29T18:51:13.848Z,100677.38
2023-06-29T18:53:45.212Z,100683.34
2023-06-29T18:56:16.474Z,100683.16
2023-06-29T18:58:48.751Z,100652.03
2023-06-29T19:01:19.774Z,100685.97
2023-06-29T19:03:50.789Z,100675.28
2023-06-29T19:06:22.057Z,100667.19
2023-06-29T19:08:53.368Z,100660.97
2023-06-29T19:11:25.596Z,100640.84
2023-06-29T19:13:57.120Z,100622.56
2023-06-29T19:16:29.817Z,100650.19
2023-06-29T19:19:00.946Z,100651.66
2023-06-29T19:21:47.105Z,100649.56
2023-06-29T19:24:20.577Z,100550.38
2023-06-29T19:26:52.904Z,100636.72
2023-06-29T19:29:24.014Z,100637.34
2023-06-29T19:31:55.471Z,100629.25
2023-06-29T19:34:27.395Z,100633.38
2023-06-29T19:37:03.536Z,100632.16
2023-06-29T19:39:35.430Z,100631.28
2023-06-29T19:42:07.772Z,100627.59
2023-06-29T19:44:39.211Z,100626.75
2023-06-29T19:47:10.392Z,100602.66
2023-06-29T19:49:41.648Z,100599.16
2023-06-29T19:52:12.917Z,100599.78
2023-06-29T19:54:44.212Z,100624.25
2023-06-29T19:57:15.740Z,100606.81
2023-06-29T19:59:47.121Z,100620.94
2023-06-29T20:02:18.314Z,100605.59
2023-06-29T20:04:49.752Z,100604.13
2023-06-29T20:07:20.959Z,100607.88
2023-06-29T20:09:52.256Z,100613.06
2023-06-29T20:12:23.408Z,100610.56
2023-06-29T20:14:54.740Z,100605.81
2023-06-29T20:17:25.926Z,100602.47
2023-06-29T20:19:57.940Z,100610.16
2023-06-29T20:22:29.208Z,100612.84
2023-06-29T20:25:00.418Z,100599.78
2023-06-29T20:27:31.872Z,100593.34
2023-06-29T20:30:03.155Z,100603.50
2023-06-29T20:32:36.406Z,100595.22
2023-06-29T20:35:08.714Z,100594.38
2023-06-29T20:37:39.649Z,100593.44
2023-06-29T20:40:11.493Z,100595.63
2023-06-29T20:42:42.869Z,100590.63
2023-06-29T20:45:14.849Z,100594.34
2023-06-29T20:47:45.759Z,100596.28
2023-06-29T20:50:16.708Z,100580.06
2023-06-29T20:52:48.123Z,100578.97
2023-06-29T20:55:19.328Z,100588.78
2023-06-29T20:57:50.454Z,100592.28
2023-06-29T21:00:21.898Z,100584.41
2023-06-29T21:02:53.975Z,100588.97
2023-06-29T21:05:26.811Z,100587.31
2023-06-29T21:07:58.587Z,100588.97
2023-06-29T21:10:29.872Z,100581.94
2023-06-29T21:13:01.293Z,100587.06
2023-06-29T21:15:32.991Z,100581.69
2023-06-29T21:18:05.835Z,100569.84
2023-06-29T21:20:37.484Z,100578.19
2023-06-29T21:23:08.908Z,100582.34
2023-06-29T21:25:40.287Z,100580.00
2023-06-29T21:28:12.720Z,100518.38
2023-06-29T21:30:44.256Z,100568.63
2023-06-29T21:33:16.689Z,100588.72
2023-06-29T21:35:47.732Z,100585.47
2023-06-29T21:38:19.808Z,100566.91
2023-06-29T21:40:52.841Z,100585.78
2023-06-29T21:43:24.428Z,100591.81
2023-06-29T21:45:55.743Z,100600.94
2023-06-29T21:48:26.989Z,100604.22
2023-06-29T21:50:58.364Z,100599.69
2023-06-29T21:53:29.549Z,100602.56
2023-06-29T21:56:10.269Z,100607.97
2023-06-29T21:58:51.817Z,100598.41
2023-06-29T22:01:23.073Z,100605.28
2023-06-29T22:03:54.244Z,100609.28
2023-06-29T22:06:25.789Z,100613.00
2023-06-29T22:08:56.879Z,100587.72
2023-06-29T22:11:29.159Z,100622.16
2023-06-29T22:14:00.411Z,100612.66
2023-06-29T22:16:31.880Z,100590.69
2023-06-29T22:19:03.087Z,100617.25
2023-06-29T22:21:34.356Z,100617.91
2023-06-29T22:24:06.113Z,100619.53
2023-06-29T22:26:37.694Z,100651.13
2023-06-29T22:29:08.985Z,100639.72
2023-06-29T22:31:40.366Z,100631.63
2023-06-29T22:34:11.427Z,100640.34
2023-06-29T22:36:43.360Z,100651.72
2023-06-29T22:39:14.612Z,100651.75
2023-06-29T22:41:46.326Z,100631.59
2023-06-29T22:44:18.057Z,100659.19
2023-06-29T22:46:49.622Z,100657.34
2023-06-29T22:49:20.897Z,100655.41
2023-06-29T22:51:52.096Z,100669.91
2023-06-29T22:54:23.172Z,100665.75
2023-06-29T22:56:57.511Z,100682.19
2023-06-29T22:59:28.988Z,100667.84
2023-06-29T23:02:00.388Z,100680.97
2023-06-29T23:04:31.647Z,100675.78
2023-06-29T23:07:03.677Z,100666.47
2023-06-29T23:09:35.030Z,100683.69
2023-06-29T23:12:06.890Z,100688.25
2023-06-29T23:14:38.528Z,100688.88
2023-06-29T23:17:09.864Z,100682.84
2023-06-29T23:19:41.029Z,100675.00
2023-06-29T23:22:12.293Z,100702.00
2023-06-29T23:24:46.658Z,100698.88
2023-06-29T23:27:19.341Z,100687.03
2023-06-29T23:29:50.618Z,100710.91
2023-06-29T23:32:22.046Z,100692.03
2023-06-29T23:34:53.224Z,100715.28
2023-06-29T23:37:24.560Z,100723.59
2023-06-29T23:39:56.387Z,100713.38
2023-06-29T23:42:27.447Z,100721.28
2023-06-29T23:44:59.434Z,100698.66
2023-06-29T23:47:31.770Z,100733.53
2023-06-29T23:50:05.878Z,100724.78
2023-06-29T23:52:37.117Z,100717.72
2023-06-29T23:55:14.222Z,100741.81
2023-06-29T23:57:45.626Z,100738.47
